C2015 KLAL-KOPF
Flight info
| Callsign | C2015 |
|---|---|
| Flight time | 1h 1m |
| Altitude | 2300 |
| Route | VFR OPR |
| Aircraft | C30J/M-SDGRY/LB1 |
Departure
| Time | 2026-04-26 22:57 |
|---|---|
| Airport | Lakeland Linder International Airport (KLAL) |
Arrival
| Time | 2026-04-26 23:58 |
|---|---|
| Airport | Miami-Opa Locka Executive Airport (KOPF) |
| Time | Latitude | Longitude | Altitude | Speed | Heading |
|---|---|---|---|---|---|
| 2026-04-26 22:42 | 27.98735 | -82.01584 | 149 ft | 0 kts | 315° |
| 2026-04-26 22:48 | 27.98737 | -82.01584 | 149 ft | 1 kts | 4° |
| 2026-04-26 22:48 | 27.98738 | -82.01580 | 149 ft | 0 kts | 96° |
| 2026-04-26 22:49 | 27.98738 | -82.01593 | 149 ft | 4 kts | 77° |
| 2026-04-26 22:49 | 27.98737 | -82.01603 | 149 ft | 1 kts | 94° |
| 2026-04-26 22:49 | 27.98738 | -82.01605 | 149 ft | 0 kts | 95° |
| 2026-04-26 22:50 | 27.98735 | -82.01569 | 149 ft | 5 kts | 94° |
| 2026-04-26 22:50 | 27.98732 | -82.01515 | 147 ft | 6 kts | 89° |
| 2026-04-26 22:51 | 27.98733 | -82.01461 | 146 ft | 8 kts | 89° |
| 2026-04-26 22:51 | 27.98734 | -82.01371 | 146 ft | 17 kts | 88° |
| 2026-04-26 22:51 | 27.98735 | -82.01302 | 146 ft | 7 kts | 89° |
| 2026-04-26 22:51 | 27.98736 | -82.01254 | 146 ft | 6 kts | 89° |
| 2026-04-26 22:52 | 27.98737 | -82.01205 | 146 ft | 8 kts | 89° |
| 2026-04-26 22:52 | 27.98741 | -82.01042 | 146 ft | 33 kts | 89° |
| 2026-04-26 22:52 | 27.98745 | -82.00880 | 146 ft | 12 kts | 88° |
| 2026-04-26 22:52 | 27.98746 | -82.00814 | 146 ft | 0 kts | 89° |
| 2026-04-26 22:53 | 27.98747 | -82.00795 | 146 ft | 7 kts | 88° |
| 2026-04-26 22:53 | 27.98760 | -82.00756 | 146 ft | 5 kts | 28° |
| 2026-04-26 22:53 | 27.98784 | -82.00754 | 146 ft | 2 kts | 358° |
| 2026-04-26 22:53 | 27.98788 | -82.00755 | 146 ft | 0 kts | 358° |
| 2026-04-26 22:55 | 27.98789 | -82.00755 | 146 ft | 2 kts | 357° |
| 2026-04-26 22:55 | 27.98835 | -82.00758 | 145 ft | 15 kts | 357° |
| 2026-04-26 22:55 | 27.98892 | -82.00760 | 146 ft | 10 kts | 358° |
| 2026-04-26 22:55 | 27.98927 | -82.00782 | 146 ft | 11 kts | 286° |
| 2026-04-26 22:56 | 27.98931 | -82.00877 | 146 ft | 35 kts | 270° |
| 2026-04-26 22:56 | 27.98932 | -82.01500 | 148 ft | 119 kts | 269° |
| 2026-04-26 22:56 | 27.98924 | -82.02454 | 238 ft | 137 kts | 272° |
| 2026-04-26 22:56 | 27.98935 | -82.03649 | 533 ft | 162 kts | 272° |
| 2026-04-26 22:57 | 27.98956 | -82.04969 | 1024 ft | 171 kts | 269° |
| 2026-04-26 22:57 | 27.98670 | -82.06246 | 1399 ft | 178 kts | 243° |
| 2026-04-26 22:57 | 27.97649 | -82.07043 | 1464 ft | 191 kts | 188° |
| 2026-04-26 22:57 | 27.96316 | -82.06836 | 1112 ft | 188 kts | 171° |
| 2026-04-26 22:58 | 27.95060 | -82.06554 | 1128 ft | 177 kts | 175° |
| 2026-04-26 22:58 | 27.94043 | -82.06033 | 1061 ft | 163 kts | 135° |
| 2026-04-26 22:58 | 27.93647 | -82.04828 | 1132 ft | 169 kts | 94° |
| 2026-04-26 22:58 | 27.93661 | -82.03434 | 1225 ft | 183 kts | 85° |
| 2026-04-26 22:59 | 27.93772 | -82.02080 | 1363 ft | 163 kts | 85° |
| 2026-04-26 22:59 | 27.93867 | -82.00807 | 1441 ft | 166 kts | 83° |
| 2026-04-26 22:59 | 27.93979 | -81.99426 | 1642 ft | 181 kts | 83° |
| 2026-04-26 22:59 | 27.94084 | -81.98078 | 1802 ft | 169 kts | 83° |
| 2026-04-26 23:00 | 27.94180 | -81.96781 | 1970 ft | 159 kts | 83° |
| 2026-04-26 23:00 | 27.94414 | -81.95477 | 2161 ft | 169 kts | 54° |
| 2026-04-26 23:00 | 27.95338 | -81.94760 | 2364 ft | 165 kts | 7° |
| 2026-04-26 23:00 | 27.96420 | -81.94610 | 2529 ft | 155 kts | 356° |
| 2026-04-26 23:01 | 27.97596 | -81.94673 | 2151 ft | 178 kts | 345° |
| 2026-04-26 23:01 | 27.98592 | -81.95277 | 1791 ft | 154 kts | 311° |
| 2026-04-26 23:01 | 27.99052 | -81.96373 | 1282 ft | 159 kts | 278° |
| 2026-04-26 23:01 | 27.99012 | -81.97674 | 764 ft | 169 kts | 265° |
| 2026-04-26 23:02 | 27.98937 | -81.98959 | 489 ft | 158 kts | 269° |
| 2026-04-26 23:02 | 27.98938 | -82.00183 | 250 ft | 152 kts | 272° |
| 2026-04-26 23:02 | 27.98953 | -82.01339 | 216 ft | 145 kts | 272° |
| 2026-04-26 23:02 | 27.98942 | -82.02475 | 278 ft | 158 kts | 271° |
| 2026-04-26 23:03 | 27.98922 | -82.03654 | 329 ft | 142 kts | 273° |
| 2026-04-26 23:03 | 27.98943 | -82.04717 | 506 ft | 137 kts | 273° |
| 2026-04-26 23:03 | 27.98958 | -82.05809 | 738 ft | 142 kts | 274° |
| 2026-04-26 23:03 | 27.98935 | -82.06977 | 1234 ft | 153 kts | 270° |
| 2026-04-26 23:04 | 27.98920 | -82.08074 | 1987 ft | 125 kts | 269° |
| 2026-04-26 23:04 | 27.98809 | -82.09082 | 2562 ft | 146 kts | 250° |
| 2026-04-26 23:04 | 27.98092 | -82.10164 | 1812 ft | 212 kts | 225° |
| 2026-04-26 23:04 | 27.96703 | -82.11016 | 1753 ft | 238 kts | 195° |
| 2026-04-26 23:05 | 27.95031 | -82.11154 | 1675 ft | 233 kts | 186° |
| 2026-04-26 23:05 | 27.93506 | -82.10704 | 1913 ft | 237 kts | 145° |
| 2026-04-26 23:05 | 27.92367 | -82.09314 | 2411 ft | 240 kts | 126° |
| 2026-04-26 23:05 | 27.91594 | -82.07687 | 2613 ft | 237 kts | 118° |
| 2026-04-26 23:06 | 27.90717 | -82.05792 | 1439 ft | 294 kts | 119° |
| 2026-04-26 23:06 | 27.89743 | -82.03826 | 1934 ft | 277 kts | 126° |
| 2026-04-26 23:06 | 27.88743 | -82.01975 | 2181 ft | 278 kts | 125° |
| 2026-04-26 23:06 | 27.87660 | -82.00215 | 2835 ft | 276 kts | 127° |
| 2026-04-26 23:07 | 27.86531 | -81.98449 | 2973 ft | 266 kts | 126° |
| 2026-04-26 23:07 | 27.85824 | -81.97346 | 2982 ft | 249 kts | 127° |
| 2026-04-26 23:07 | 27.84464 | -81.95236 | 2897 ft | 259 kts | 127° |
| 2026-04-26 23:07 | 27.83270 | -81.93616 | 3026 ft | 279 kts | 136° |
| 2026-04-26 23:08 | 27.81914 | -81.92143 | 2984 ft | 253 kts | 138° |
| 2026-04-26 23:08 | 27.80701 | -81.90879 | 2978 ft | 228 kts | 142° |
| 2026-04-26 23:08 | 27.79457 | -81.89774 | 3010 ft | 228 kts | 146° |
| 2026-04-26 23:08 | 27.78184 | -81.88699 | 3001 ft | 227 kts | 146° |
| 2026-04-26 23:09 | 27.76950 | -81.87651 | 2989 ft | 224 kts | 145° |
| 2026-04-26 23:09 | 27.75701 | -81.86579 | 3008 ft | 228 kts | 145° |
| 2026-04-26 23:09 | 27.74446 | -81.85493 | 3001 ft | 226 kts | 145° |
| 2026-04-26 23:09 | 27.73198 | -81.84405 | 2991 ft | 228 kts | 144° |
| 2026-04-26 23:10 | 27.71941 | -81.83311 | 3004 ft | 227 kts | 145° |
| 2026-04-26 23:10 | 27.70670 | -81.82203 | 2999 ft | 228 kts | 145° |
| 2026-04-26 23:10 | 27.69430 | -81.81115 | 3008 ft | 230 kts | 144° |
| 2026-04-26 23:10 | 27.68174 | -81.80012 | 2997 ft | 226 kts | 143° |
| 2026-04-26 23:11 | 27.66930 | -81.78919 | 3003 ft | 228 kts | 144° |
| 2026-04-26 23:11 | 27.65685 | -81.77829 | 2990 ft | 229 kts | 144° |
| 2026-04-26 23:11 | 27.64451 | -81.76746 | 2999 ft | 224 kts | 144° |
| 2026-04-26 23:11 | 27.63205 | -81.75655 | 3002 ft | 230 kts | 144° |
| 2026-04-26 23:12 | 27.61951 | -81.74561 | 2988 ft | 226 kts | 145° |
| 2026-04-26 23:12 | 27.60695 | -81.73466 | 2993 ft | 229 kts | 145° |
| 2026-04-26 23:12 | 27.59448 | -81.72377 | 2985 ft | 223 kts | 144° |
| 2026-04-26 23:12 | 27.58218 | -81.71303 | 3001 ft | 225 kts | 145° |
| 2026-04-26 23:13 | 27.56992 | -81.70233 | 2989 ft | 225 kts | 144° |
| 2026-04-26 23:13 | 27.55746 | -81.69145 | 2994 ft | 223 kts | 143° |
| 2026-04-26 23:13 | 27.54517 | -81.68071 | 3006 ft | 224 kts | 144° |
| 2026-04-26 23:13 | 27.53289 | -81.67000 | 2991 ft | 224 kts | 144° |
| 2026-04-26 23:14 | 27.52062 | -81.65928 | 2994 ft | 223 kts | 143° |
| 2026-04-26 23:14 | 27.50839 | -81.64861 | 2987 ft | 224 kts | 144° |
| 2026-04-26 23:14 | 27.49621 | -81.63798 | 2984 ft | 221 kts | 144° |
| 2026-04-26 23:14 | 27.48406 | -81.62740 | 2988 ft | 221 kts | 144° |
| 2026-04-26 23:15 | 27.47180 | -81.61671 | 2987 ft | 223 kts | 144° |
| 2026-04-26 23:15 | 27.45946 | -81.60596 | 2986 ft | 226 kts | 145° |
| 2026-04-26 23:15 | 27.44721 | -81.59529 | 2970 ft | 224 kts | 144° |
| 2026-04-26 23:15 | 27.43489 | -81.58457 | 2982 ft | 227 kts | 145° |
| 2026-04-26 23:16 | 27.42252 | -81.57379 | 2982 ft | 223 kts | 144° |
| 2026-04-26 23:16 | 27.41027 | -81.56313 | 2987 ft | 224 kts | 144° |
| 2026-04-26 23:16 | 27.39787 | -81.55234 | 2980 ft | 226 kts | 144° |
| 2026-04-26 23:16 | 27.38577 | -81.54181 | 2987 ft | 222 kts | 144° |
| 2026-04-26 23:17 | 27.37350 | -81.53114 | 2981 ft | 224 kts | 144° |
| 2026-04-26 23:17 | 27.36123 | -81.52047 | 2986 ft | 223 kts | 144° |
| 2026-04-26 23:17 | 27.34904 | -81.50987 | 2996 ft | 224 kts | 144° |
| 2026-04-26 23:17 | 27.33678 | -81.49923 | 2979 ft | 224 kts | 144° |
| 2026-04-26 23:18 | 27.32446 | -81.48853 | 2971 ft | 222 kts | 144° |
| 2026-04-26 23:18 | 27.31613 | -81.48130 | 2973 ft | 225 kts | 145° |
| 2026-04-26 23:18 | 27.30371 | -81.47052 | 2972 ft | 226 kts | 144° |
| 2026-04-26 23:18 | 27.29135 | -81.45980 | 2972 ft | 223 kts | 144° |
| 2026-04-26 23:19 | 27.27917 | -81.44923 | 2982 ft | 226 kts | 144° |
| 2026-04-26 23:19 | 27.26611 | -81.43943 | 2972 ft | 221 kts | 151° |
| 2026-04-26 23:19 | 27.25267 | -81.43088 | 2970 ft | 225 kts | 154° |
| 2026-04-26 23:19 | 27.23904 | -81.42248 | 2980 ft | 220 kts | 154° |
| 2026-04-26 23:20 | 27.22549 | -81.41408 | 2974 ft | 227 kts | 154° |
| 2026-04-26 23:20 | 27.21178 | -81.40553 | 2977 ft | 223 kts | 153° |
| 2026-04-26 23:20 | 27.19831 | -81.39709 | 2976 ft | 224 kts | 153° |
| 2026-04-26 23:20 | 27.18464 | -81.38850 | 2985 ft | 223 kts | 153° |
| 2026-04-26 23:21 | 27.17105 | -81.37995 | 2977 ft | 225 kts | 153° |
| 2026-04-26 23:21 | 27.15754 | -81.37143 | 2978 ft | 220 kts | 153° |
| 2026-04-26 23:21 | 27.14417 | -81.36300 | 2973 ft | 227 kts | 154° |
| 2026-04-26 23:21 | 27.13053 | -81.35440 | 2971 ft | 223 kts | 153° |
| 2026-04-26 23:22 | 27.11699 | -81.34585 | 2981 ft | 222 kts | 153° |
| 2026-04-26 23:22 | 27.10352 | -81.33736 | 2970 ft | 224 kts | 153° |
| 2026-04-26 23:22 | 27.08998 | -81.32883 | 2979 ft | 226 kts | 154° |
| 2026-04-26 23:22 | 27.07646 | -81.32031 | 2964 ft | 222 kts | 154° |
| 2026-04-26 23:23 | 27.06283 | -81.31173 | 2973 ft | 224 kts | 153° |
| 2026-04-26 23:23 | 27.04932 | -81.30322 | 2969 ft | 222 kts | 152° |
| 2026-04-26 23:23 | 27.03595 | -81.29481 | 2967 ft | 223 kts | 153° |
| 2026-04-26 23:23 | 27.02254 | -81.28636 | 2971 ft | 223 kts | 153° |
| 2026-04-26 23:24 | 27.00904 | -81.27786 | 2968 ft | 222 kts | 152° |
| 2026-04-26 23:24 | 26.99560 | -81.26940 | 2979 ft | 222 kts | 152° |
| 2026-04-26 23:24 | 26.98221 | -81.26098 | 2970 ft | 220 kts | 153° |
| 2026-04-26 23:24 | 26.96879 | -81.25255 | 2973 ft | 222 kts | 152° |
| 2026-04-26 23:25 | 26.95530 | -81.24407 | 2977 ft | 220 kts | 153° |
| 2026-04-26 23:25 | 26.94186 | -81.23563 | 2979 ft | 222 kts | 153° |
| 2026-04-26 23:25 | 26.92830 | -81.22711 | 2975 ft | 223 kts | 153° |
| 2026-04-26 23:25 | 26.91481 | -81.21864 | 2975 ft | 222 kts | 152° |
| 2026-04-26 23:26 | 26.90154 | -81.21030 | 2976 ft | 221 kts | 153° |
| 2026-04-26 23:26 | 26.88801 | -81.20182 | 2980 ft | 222 kts | 154° |
| 2026-04-26 23:26 | 26.87466 | -81.19344 | 2972 ft | 219 kts | 154° |
| 2026-04-26 23:26 | 26.86114 | -81.18497 | 2976 ft | 223 kts | 153° |
| 2026-04-26 23:27 | 26.84769 | -81.17654 | 2982 ft | 223 kts | 154° |
| 2026-04-26 23:27 | 26.83419 | -81.16807 | 2970 ft | 219 kts | 153° |
| 2026-04-26 23:27 | 26.82096 | -81.15978 | 2948 ft | 213 kts | 153° |
| 2026-04-26 23:27 | 26.80809 | -81.15172 | 2567 ft | 207 kts | 153° |
| 2026-04-26 23:28 | 26.79614 | -81.14420 | 2468 ft | 186 kts | 155° |
| 2026-04-26 23:28 | 26.78416 | -81.13675 | 2499 ft | 214 kts | 154° |
| 2026-04-26 23:28 | 26.77088 | -81.12849 | 2481 ft | 218 kts | 153° |
| 2026-04-26 23:28 | 26.75762 | -81.12018 | 2489 ft | 221 kts | 154° |
| 2026-04-26 23:29 | 26.74425 | -81.11180 | 2472 ft | 220 kts | 153° |
| 2026-04-26 23:29 | 26.73092 | -81.10345 | 2486 ft | 224 kts | 154° |
| 2026-04-26 23:29 | 26.71758 | -81.09510 | 2476 ft | 218 kts | 153° |
| 2026-04-26 23:29 | 26.70410 | -81.08667 | 2477 ft | 221 kts | 152° |
| 2026-04-26 23:30 | 26.69124 | -81.07861 | 2470 ft | 199 kts | 153° |
| 2026-04-26 23:30 | 26.67953 | -81.07128 | 2471 ft | 187 kts | 153° |
| 2026-04-26 23:30 | 26.66822 | -81.06414 | 2487 ft | 188 kts | 154° |
| 2026-04-26 23:30 | 26.65666 | -81.05687 | 2484 ft | 190 kts | 153° |
| 2026-04-26 23:31 | 26.64518 | -81.04967 | 2487 ft | 186 kts | 153° |
| 2026-04-26 23:31 | 26.63381 | -81.04255 | 2489 ft | 187 kts | 154° |
| 2026-04-26 23:31 | 26.62245 | -81.03547 | 2487 ft | 190 kts | 154° |
| 2026-04-26 23:31 | 26.61102 | -81.02834 | 2485 ft | 185 kts | 153° |
| 2026-04-26 23:32 | 26.59963 | -81.02124 | 2481 ft | 188 kts | 153° |
| 2026-04-26 23:32 | 26.58824 | -81.01415 | 2483 ft | 187 kts | 153° |
| 2026-04-26 23:32 | 26.57693 | -81.00709 | 2486 ft | 186 kts | 152° |
| 2026-04-26 23:32 | 26.56570 | -81.00010 | 2500 ft | 183 kts | 154° |
| 2026-04-26 23:33 | 26.55442 | -80.99310 | 2495 ft | 188 kts | 154° |
| 2026-04-26 23:33 | 26.54302 | -80.98607 | 2488 ft | 188 kts | 153° |
| 2026-04-26 23:33 | 26.53179 | -80.97907 | 2495 ft | 184 kts | 154° |
| 2026-04-26 23:33 | 26.52049 | -80.97207 | 2484 ft | 185 kts | 153° |
| 2026-04-26 23:34 | 26.50921 | -80.96494 | 2488 ft | 185 kts | 154° |
| 2026-04-26 23:34 | 26.49798 | -80.95798 | 2490 ft | 187 kts | 154° |
| 2026-04-26 23:34 | 26.48661 | -80.95098 | 2485 ft | 184 kts | 154° |
| 2026-04-26 23:34 | 26.47531 | -80.94401 | 2493 ft | 186 kts | 154° |
| 2026-04-26 23:35 | 26.46396 | -80.93699 | 2494 ft | 185 kts | 153° |
| 2026-04-26 23:35 | 26.45270 | -80.93002 | 2486 ft | 184 kts | 155° |
| 2026-04-26 23:35 | 26.44145 | -80.92304 | 2493 ft | 185 kts | 154° |
| 2026-04-26 23:35 | 26.43013 | -80.91600 | 2496 ft | 186 kts | 154° |
| 2026-04-26 23:36 | 26.41881 | -80.90894 | 2494 ft | 185 kts | 153° |
| 2026-04-26 23:36 | 26.40749 | -80.90186 | 2500 ft | 186 kts | 153° |
| 2026-04-26 23:36 | 26.39615 | -80.89479 | 2495 ft | 190 kts | 153° |
| 2026-04-26 23:36 | 26.38467 | -80.88761 | 2502 ft | 188 kts | 153° |
| 2026-04-26 23:37 | 26.37343 | -80.88056 | 2506 ft | 185 kts | 152° |
| 2026-04-26 23:37 | 26.36219 | -80.87350 | 2502 ft | 188 kts | 154° |
| 2026-04-26 23:37 | 26.35084 | -80.86641 | 2495 ft | 186 kts | 153° |
| 2026-04-26 23:37 | 26.33958 | -80.85941 | 2505 ft | 186 kts | 154° |
| 2026-04-26 23:38 | 26.32828 | -80.85241 | 2498 ft | 186 kts | 153° |
| 2026-04-26 23:38 | 26.31691 | -80.84537 | 2512 ft | 186 kts | 153° |
| 2026-04-26 23:38 | 26.30561 | -80.83842 | 2501 ft | 188 kts | 154° |
| 2026-04-26 23:38 | 26.29413 | -80.83147 | 2493 ft | 186 kts | 155° |
| 2026-04-26 23:39 | 26.28291 | -80.82465 | 2507 ft | 189 kts | 155° |
| 2026-04-26 23:39 | 26.27144 | -80.81766 | 2501 ft | 186 kts | 154° |
| 2026-04-26 23:39 | 26.26017 | -80.81073 | 2509 ft | 185 kts | 154° |
| 2026-04-26 23:39 | 26.24885 | -80.80376 | 2503 ft | 185 kts | 154° |
| 2026-04-26 23:40 | 26.23762 | -80.79684 | 2500 ft | 185 kts | 154° |
| 2026-04-26 23:40 | 26.22636 | -80.78988 | 2508 ft | 184 kts | 154° |
| 2026-04-26 23:40 | 26.21474 | -80.78253 | 2530 ft | 210 kts | 152° |
| 2026-04-26 23:40 | 26.20166 | -80.77436 | 2518 ft | 217 kts | 154° |
| 2026-04-26 23:41 | 26.18844 | -80.76623 | 2506 ft | 218 kts | 154° |
| 2026-04-26 23:41 | 26.17538 | -80.75819 | 2502 ft | 216 kts | 153° |
| 2026-04-26 23:41 | 26.16216 | -80.75004 | 2501 ft | 206 kts | 153° |
| 2026-04-26 23:41 | 26.15045 | -80.74238 | 2492 ft | 196 kts | 146° |
| 2026-04-26 23:42 | 26.13926 | -80.73376 | 2504 ft | 196 kts | 150° |
| 2026-04-26 23:42 | 26.11587 | -80.71822 | 2511 ft | 196 kts | 152° |
| 2026-04-26 23:42 | 26.10421 | -80.71053 | 2507 ft | 194 kts | 152° |
| 2026-04-26 23:43 | 26.09249 | -80.70293 | 2512 ft | 195 kts | 152° |
| 2026-04-26 23:43 | 26.08076 | -80.69530 | 2506 ft | 194 kts | 152° |
| 2026-04-26 23:43 | 26.06895 | -80.68765 | 2512 ft | 195 kts | 152° |
| 2026-04-26 23:43 | 26.05730 | -80.68013 | 2509 ft | 194 kts | 152° |
| 2026-04-26 23:44 | 26.04559 | -80.67249 | 2505 ft | 196 kts | 151° |
| 2026-04-26 23:44 | 26.03377 | -80.66483 | 2504 ft | 196 kts | 152° |
| 2026-04-26 23:44 | 26.02197 | -80.65718 | 2506 ft | 197 kts | 152° |
| 2026-04-26 23:44 | 26.01022 | -80.64950 | 2507 ft | 195 kts | 152° |
| 2026-04-26 23:45 | 25.99848 | -80.64186 | 2511 ft | 196 kts | 152° |
| 2026-04-26 23:45 | 25.98678 | -80.63421 | 2509 ft | 195 kts | 152° |
| 2026-04-26 23:45 | 25.97530 | -80.62663 | 2508 ft | 196 kts | 152° |
| 2026-04-26 23:45 | 25.96353 | -80.61889 | 2512 ft | 196 kts | 152° |
| 2026-04-26 23:46 | 25.95182 | -80.61117 | 2532 ft | 197 kts | 152° |
| 2026-04-26 23:46 | 25.94014 | -80.60346 | 2525 ft | 195 kts | 152° |
| 2026-04-26 23:46 | 25.92837 | -80.59591 | 2515 ft | 193 kts | 152° |
| 2026-04-26 23:46 | 25.91681 | -80.58859 | 2511 ft | 194 kts | 152° |
| 2026-04-26 23:47 | 25.90499 | -80.58112 | 2515 ft | 194 kts | 149° |
| 2026-04-26 23:47 | 25.89640 | -80.56974 | 2517 ft | 193 kts | 108° |
| 2026-04-26 23:47 | 25.89653 | -80.55604 | 2496 ft | 170 kts | 75° |
| 2026-04-26 23:47 | 25.89883 | -80.54344 | 2517 ft | 171 kts | 81° |
| 2026-04-26 23:48 | 25.90024 | -80.53042 | 2517 ft | 171 kts | 84° |
| 2026-04-26 23:48 | 25.90138 | -80.51744 | 2519 ft | 169 kts | 85° |
| 2026-04-26 23:48 | 25.90232 | -80.50440 | 2516 ft | 169 kts | 86° |
| 2026-04-26 23:48 | 25.90309 | -80.49130 | 2518 ft | 170 kts | 87° |
| 2026-04-26 23:49 | 25.90374 | -80.47824 | 2507 ft | 169 kts | 87° |
| 2026-04-26 23:49 | 25.90432 | -80.46522 | 2513 ft | 169 kts | 88° |
| 2026-04-26 23:49 | 25.90486 | -80.45259 | 2491 ft | 152 kts | 88° |
| 2026-04-26 23:49 | 25.90534 | -80.44107 | 2516 ft | 148 kts | 87° |
| 2026-04-26 23:50 | 25.90584 | -80.42968 | 2429 ft | 147 kts | 88° |
| 2026-04-26 23:50 | 25.90635 | -80.41825 | 2273 ft | 147 kts | 88° |
| 2026-04-26 23:50 | 25.90688 | -80.40696 | 2096 ft | 145 kts | 87° |
| 2026-04-26 23:50 | 25.90743 | -80.39569 | 1906 ft | 145 kts | 88° |
| 2026-04-26 23:51 | 25.90797 | -80.38445 | 1700 ft | 144 kts | 88° |
| 2026-04-26 23:51 | 25.90852 | -80.37335 | 1507 ft | 143 kts | 88° |
| 2026-04-26 23:51 | 25.90905 | -80.36239 | 1312 ft | 142 kts | 88° |
| 2026-04-26 23:51 | 25.90960 | -80.35141 | 1130 ft | 142 kts | 87° |
| 2026-04-26 23:52 | 25.91014 | -80.34058 | 909 ft | 138 kts | 88° |
| 2026-04-26 23:52 | 25.91097 | -80.32997 | 675 ft | 133 kts | 87° |
| 2026-04-26 23:52 | 25.91146 | -80.31951 | 556 ft | 136 kts | 91° |
| 2026-04-26 23:52 | 25.91174 | -80.30906 | 365 ft | 135 kts | 90° |
| 2026-04-26 23:53 | 25.91228 | -80.29860 | 200 ft | 134 kts | 91° |
| 2026-04-26 23:53 | 25.91270 | -80.28825 | 72 ft | 134 kts | 90° |
| 2026-04-26 23:53 | 25.91319 | -80.27798 | 98 ft | 133 kts | 91° |
| 2026-04-26 23:53 | 25.91394 | -80.26781 | 252 ft | 133 kts | 79° |
| 2026-04-26 23:54 | 25.91928 | -80.25948 | 375 ft | 155 kts | 34° |
| 2026-04-26 23:54 | 25.92952 | -80.25724 | 584 ft | 155 kts | 348° |
| 2026-04-26 23:54 | 25.93898 | -80.26326 | 752 ft | 156 kts | 309° |
| 2026-04-26 23:54 | 25.94300 | -80.27347 | 872 ft | 142 kts | 276° |
| 2026-04-26 23:55 | 25.94375 | -80.28457 | 765 ft | 150 kts | 270° |
| 2026-04-26 23:55 | 25.94401 | -80.29574 | 667 ft | 137 kts | 269° |
| 2026-04-26 23:55 | 25.94409 | -80.30616 | 636 ft | 134 kts | 268° |
| 2026-04-26 23:55 | 25.94431 | -80.31626 | 623 ft | 133 kts | 270° |
| 2026-04-26 23:56 | 25.94414 | -80.32693 | 698 ft | 139 kts | 262° |
| 2026-04-26 23:56 | 25.94092 | -80.33626 | 653 ft | 127 kts | 226° |
| 2026-04-26 23:56 | 25.93323 | -80.34126 | 597 ft | 132 kts | 188° |
| 2026-04-26 23:56 | 25.92405 | -80.34151 | 571 ft | 129 kts | 173° |
| 2026-04-26 23:57 | 25.91622 | -80.33693 | 653 ft | 133 kts | 125° |
| 2026-04-26 23:57 | 25.91216 | -80.32700 | 575 ft | 142 kts | 108° |
| 2026-04-26 23:57 | 25.91117 | -80.31670 | 433 ft | 134 kts | 90° |
| 2026-04-26 23:57 | 25.91180 | -80.30642 | 324 ft | 132 kts | 86° |
| 2026-04-26 23:58 | 25.91233 | -80.29597 | 167 ft | 135 kts | 90° |
| 2026-04-26 23:58 | 25.91283 | -80.28643 | 25 ft | 112 kts | 90° |
| 2026-04-26 23:58 | 25.91307 | -80.27884 | 12 ft | 79 kts | 88° |
| 2026-04-26 23:58 | 25.91328 | -80.27504 | 15 ft | 27 kts | 86° |
| 2026-04-26 23:59 | 25.91317 | -80.27342 | 16 ft | 14 kts | 130° |
| 2026-04-26 23:59 | 25.91252 | -80.27333 | 15 ft | 10 kts | 206° |
| 2026-04-26 23:59 | 25.91188 | -80.27377 | 14 ft | 10 kts | 211° |
| 2026-04-26 23:59 | 25.91136 | -80.27415 | 14 ft | 12 kts | 213° |
| 2026-04-27 00:00 | 25.91096 | -80.27443 | 14 ft | 13 kts | 213° |
| 2026-04-27 00:00 | 25.91007 | -80.27504 | 14 ft | 21 kts | 212° |
| 2026-04-27 00:00 | 25.90858 | -80.27608 | 14 ft | 1 kts | 209° |
| 2026-04-27 00:00 | 25.90789 | -80.27618 | 14 ft | 12 kts | 185° |
| 2026-04-27 00:01 | 25.90711 | -80.27622 | 14 ft | 10 kts | 171° |
| 2026-04-27 00:01 | 25.90636 | -80.27600 | 15 ft | 8 kts | 150° |
| 2026-04-27 00:01 | 25.90617 | -80.27551 | 14 ft | 9 kts | 71° |
| 2026-04-27 00:01 | 25.90645 | -80.27505 | 14 ft | 2 kts | 37° |
| 2026-04-27 00:02 | 25.90665 | -80.27510 | 14 ft | 3 kts | 302° |
| 2026-04-27 00:02 | 25.90669 | -80.27517 | 14 ft | 0 kts | 301° |